createdAt,value
2022-09-20T00:00:27.123Z,34.84
2022-09-20T00:00:57.235Z,34.82
2022-09-20T00:01:27.353Z,34.82
2022-09-20T00:01:57.250Z,34.85
2022-09-20T00:02:27.279Z,34.81
2022-09-20T00:02:57.309Z,34.81
2022-09-20T00:03:27.344Z,34.88
2022-09-20T00:03:57.374Z,34.82
2022-09-20T00:04:27.403Z,34.86
2022-09-20T00:04:57.519Z,34.84
2022-09-20T00:05:27.590Z,34.82
2022-09-20T00:05:57.632Z,34.84
2022-09-20T00:06:27.666Z,34.84
2022-09-20T00:06:57.696Z,34.82
2022-09-20T00:07:27.724Z,34.80
2022-09-20T00:07:57.758Z,34.75
2022-09-20T00:08:27.787Z,34.82
2022-09-20T00:08:57.820Z,34.82
2022-09-20T00:09:27.853Z,34.80
2022-09-20T00:09:57.888Z,34.85
2022-09-20T00:10:27.923Z,34.81
2022-09-20T00:10:57.956Z,34.82
2022-09-20T00:11:27.981Z,34.80
2022-09-20T00:11:58.017Z,34.80
2022-09-20T00:12:28.051Z,34.85
2022-09-20T00:12:58.102Z,34.84
2022-09-20T00:13:28.111Z,34.81
2022-09-20T00:13:58.152Z,34.85
2022-09-20T00:14:28.181Z,34.82
2022-09-20T00:14:58.216Z,34.86
2022-09-20T00:15:28.249Z,34.86
2022-09-20T00:15:58.278Z,34.84
2022-09-20T00:16:28.429Z,34.80
2022-09-20T00:16:58.531Z,34.83
2022-09-20T00:17:28.438Z,34.85
2022-09-20T00:17:58.471Z,34.85
2022-09-20T00:18:28.508Z,34.81
2022-09-20T00:18:58.532Z,34.85
2022-09-20T00:19:28.562Z,34.86
2022-09-20T00:19:58.601Z,34.88
2022-09-20T00:20:28.632Z,34.82
2022-09-20T00:20:58.666Z,34.82
2022-09-20T00:21:28.694Z,34.85
2022-09-20T00:21:58.723Z,34.83
2022-09-20T00:22:28.759Z,34.86
2022-09-20T00:22:58.796Z,34.85
2022-09-20T00:23:28.822Z,34.80
2022-09-20T00:23:58.860Z,34.82
2022-09-20T00:24:28.888Z,34.85
2022-09-20T00:24:58.929Z,34.82
2022-09-20T00:25:28.955Z,34.85
2022-09-20T00:25:58.990Z,34.81
2022-09-20T00:26:29.022Z,34.86
2022-09-20T00:26:59.047Z,34.89
2022-09-20T00:27:29.082Z,34.89
2022-09-20T00:27:59.113Z,34.84
2022-09-20T00:28:29.168Z,34.83
2022-09-20T00:28:59.180Z,34.83
2022-09-20T00:29:29.214Z,34.89
2022-09-20T00:29:59.262Z,34.84
2022-09-20T00:30:29.293Z,34.89
2022-09-20T00:30:59.348Z,34.90
2022-09-20T00:31:29.484Z,34.90
2022-09-20T00:31:59.436Z,34.84
2022-09-20T00:32:29.469Z,34.89
2022-09-20T00:32:59.492Z,34.83
2022-09-20T00:33:29.482Z,34.83
2022-09-20T00:33:59.601Z,34.86
2022-09-20T00:34:29.592Z,34.83
2022-09-20T00:34:59.611Z,34.87
2022-09-20T00:35:29.610Z,34.89
2022-09-20T00:35:59.597Z,34.87
2022-09-20T00:36:29.722Z,34.89
2022-09-20T00:36:59.831Z,34.86
2022-09-20T00:37:29.824Z,34.83
2022-09-20T00:37:59.824Z,34.85
2022-09-20T00:38:29.818Z,34.81
2022-09-20T00:38:59.941Z,34.83
2022-09-20T00:39:30.054Z,34.82
2022-09-20T00:40:00.139Z,34.83
2022-09-20T00:40:30.172Z,34.80
2022-09-20T00:41:00.081Z,34.86
2022-09-20T00:41:30.183Z,34.82
2022-09-20T00:42:00.180Z,34.83
2022-09-20T00:42:30.183Z,34.84
2022-09-20T00:43:00.198Z,34.83
2022-09-20T00:43:30.231Z,34.86
2022-09-20T00:44:00.291Z,34.85
2022-09-20T00:44:30.299Z,34.83
2022-09-20T00:45:00.335Z,34.80
2022-09-20T00:45:30.453Z,34.85
2022-09-20T00:46:00.457Z,34.86
2022-09-20T00:46:30.388Z,34.82
2022-09-20T00:47:00.423Z,34.83
2022-09-20T00:47:30.458Z,34.85
2022-09-20T00:48:00.492Z,34.86
2022-09-20T00:48:30.522Z,34.82
2022-09-20T00:49:00.559Z,34.87
2022-09-20T00:49:30.606Z,34.86
2022-09-20T00:50:00.653Z,34.82
2022-09-20T00:50:30.687Z,34.82
2022-09-20T00:51:00.717Z,34.82
2022-09-20T00:51:30.741Z,34.79
2022-09-20T00:52:00.778Z,34.83
2022-09-20T00:52:30.809Z,34.85
2022-09-20T00:53:00.845Z,34.78
2022-09-20T00:53:30.875Z,34.80
2022-09-20T00:54:00.909Z,34.79
2022-09-20T00:54:30.947Z,34.84
2022-09-20T00:55:00.998Z,34.87
2022-09-20T00:55:31.027Z,34.86
2022-09-20T00:56:01.059Z,34.79
2022-09-20T00:56:31.090Z,34.84
2022-09-20T00:57:01.122Z,34.84
2022-09-20T00:57:31.155Z,34.80
2022-09-20T00:58:01.190Z,34.83
2022-09-20T00:58:31.222Z,34.87
2022-09-20T00:59:01.262Z,34.86
2022-09-20T00:59:31.302Z,34.84
2022-09-20T01:00:01.323Z,34.87
2022-09-20T01:00:31.354Z,34.83
2022-09-20T01:01:01.453Z,34.91
2022-09-20T01:01:31.545Z,34.87
2022-09-20T01:02:01.574Z,34.89
2022-09-20T01:02:31.677Z,34.84
2022-09-20T01:03:01.711Z,34.86
2022-09-20T01:03:31.738Z,34.84
2022-09-20T01:04:01.771Z,34.89
2022-09-20T01:04:31.819Z,34.84
2022-09-20T01:05:01.858Z,34.84
2022-09-20T01:05:31.884Z,34.80
2022-09-20T01:06:01.920Z,34.84
2022-09-20T01:06:31.951Z,34.90
2022-09-20T01:07:01.985Z,34.92
2022-09-20T01:07:32.012Z,34.91
2022-09-20T01:08:02.045Z,34.88
2022-09-20T01:08:32.076Z,34.87
2022-09-20T01:09:02.110Z,34.87
2022-09-20T01:09:32.140Z,34.85
2022-09-20T01:10:02.176Z,34.87
2022-09-20T01:10:32.218Z,34.84
2022-09-20T01:11:02.247Z,34.87
2022-09-20T01:11:32.284Z,34.84
2022-09-20T01:12:02.318Z,34.87
2022-09-20T01:12:32.348Z,34.87
2022-09-20T01:13:02.382Z,34.86
2022-09-20T01:13:32.414Z,34.87
2022-09-20T01:14:02.440Z,34.84
2022-09-20T01:14:32.476Z,34.81
2022-09-20T01:15:02.550Z,34.91
2022-09-20T01:15:32.546Z,34.87
2022-09-20T01:16:02.581Z,34.84
2022-09-20T01:16:32.651Z,34.85
2022-09-20T01:17:02.708Z,34.90
2022-09-20T01:17:32.743Z,34.87
2022-09-20T01:18:02.776Z,34.84
2022-09-20T01:18:32.802Z,34.90
2022-09-20T01:19:02.833Z,34.88
2022-09-20T01:19:32.865Z,34.87
2022-09-20T01:20:02.897Z,34.88
2022-09-20T01:20:32.933Z,34.83
2022-09-20T01:21:02.963Z,34.88
2022-09-20T01:21:32.992Z,34.84
2022-09-20T01:22:03.024Z,34.86
2022-09-20T01:22:33.063Z,34.91
2022-09-20T01:23:03.107Z,34.84
2022-09-20T01:23:33.130Z,34.84
2022-09-20T01:24:03.179Z,34.87
2022-09-20T01:24:33.208Z,34.84
2022-09-20T01:25:03.247Z,34.81
2022-09-20T01:25:33.286Z,34.83
2022-09-20T01:26:03.321Z,34.83
2022-09-20T01:26:33.358Z,34.87
2022-09-20T01:27:03.390Z,34.85
2022-09-20T01:27:33.419Z,34.87
2022-09-20T01:28:03.462Z,34.84
2022-09-20T01:28:33.518Z,34.88
2022-09-20T01:29:03.539Z,34.84
2022-09-20T01:29:33.572Z,34.83
2022-09-20T01:30:03.600Z,34.85
2022-09-20T01:30:33.665Z,34.85
2022-09-20T01:31:03.678Z,34.83
2022-09-20T01:31:33.790Z,34.86
2022-09-20T01:32:03.930Z,34.88
2022-09-20T01:32:33.864Z,34.85
2022-09-20T01:33:03.887Z,34.79
2022-09-20T01:33:33.874Z,34.86
2022-09-20T01:34:03.866Z,34.80
2022-09-20T01:34:33.981Z,34.84
2022-09-20T01:35:03.991Z,34.81
2022-09-20T01:35:33.977Z,34.83
2022-09-20T01:36:04.099Z,34.87
2022-09-20T01:36:34.101Z,34.88
2022-09-20T01:37:04.219Z,34.90
2022-09-20T01:37:34.222Z,34.82
2022-09-20T01:38:04.214Z,34.87
2022-09-20T01:38:34.210Z,34.88
2022-09-20T01:39:04.325Z,34.83
2022-09-20T01:39:34.323Z,34.81
2022-09-20T01:40:04.523Z,34.85
2022-09-20T01:40:34.562Z,34.84
2022-09-20T01:41:04.529Z,34.83
2022-09-20T01:41:34.653Z,34.86
2022-09-20T01:42:04.647Z,34.83
2022-09-20T01:42:34.651Z,34.87
2022-09-20T01:43:04.660Z,34.86
2022-09-20T01:43:34.690Z,34.85
2022-09-20T01:44:04.725Z,34.90
2022-09-20T01:44:34.756Z,34.82
2022-09-20T01:45:04.802Z,34.87
2022-09-20T01:45:34.900Z,34.85
2022-09-20T01:46:05.048Z,34.88
2022-09-20T01:46:34.966Z,34.90
2022-09-20T01:47:05.000Z,34.88
2022-09-20T01:47:35.028Z,34.84
2022-09-20T01:48:05.061Z,34.85
2022-09-20T01:48:35.092Z,34.85
2022-09-20T01:49:05.335Z,34.86
2022-09-20T01:49:35.168Z,34.88
2022-09-20T01:50:05.206Z,34.88
2022-09-20T01:50:35.236Z,34.84
2022-09-20T01:51:05.266Z,34.90
2022-09-20T01:51:35.296Z,34.88
2022-09-20T01:52:05.326Z,34.85
2022-09-20T01:52:35.367Z,34.85
2022-09-20T01:53:05.395Z,34.84
2022-09-20T01:53:35.427Z,34.92
2022-09-20T01:54:05.482Z,34.84
2022-09-20T01:54:35.522Z,34.87
2022-09-20T01:55:05.550Z,34.87
2022-09-20T01:55:35.595Z,34.85
2022-09-20T01:56:05.627Z,34.87
2022-09-20T01:56:35.655Z,34.85
2022-09-20T01:57:05.685Z,34.91
2022-09-20T01:57:35.718Z,34.84
2022-09-20T01:58:05.742Z,34.85
2022-09-20T01:58:35.782Z,34.86
2022-09-20T01:59:23.102Z,34.84
2022-09-20T01:59:35.859Z,34.82
2022-09-20T02:00:05.893Z,34.86
2022-09-20T02:00:35.927Z,34.91
2022-09-20T02:01:06.014Z,34.87
2022-09-20T02:01:36.150Z,34.82
2022-09-20T02:02:06.171Z,34.88
2022-09-20T02:02:36.230Z,34.85
2022-09-20T02:03:06.249Z,34.89
2022-09-20T02:03:36.284Z,34.88
2022-09-20T02:04:06.309Z,34.87
2022-09-20T02:04:36.349Z,34.91
2022-09-20T02:05:06.412Z,34.84
2022-09-20T02:05:36.439Z,34.91
2022-09-20T02:06:06.475Z,34.84
2022-09-20T02:06:36.531Z,34.86
2022-09-20T02:07:06.567Z,34.82
2022-09-20T02:07:36.592Z,34.84
2022-09-20T02:08:06.623Z,34.89
2022-09-20T02:08:36.655Z,34.91
2022-09-20T02:09:06.685Z,34.88
2022-09-20T02:09:36.718Z,34.85
2022-09-20T02:10:06.765Z,34.85
2022-09-20T02:10:36.799Z,34.84
2022-09-20T02:11:06.829Z,34.91
2022-09-20T02:11:36.861Z,34.85
2022-09-20T02:12:06.892Z,34.85
2022-09-20T02:12:36.925Z,34.89
2022-09-20T02:13:06.953Z,34.87
2022-09-20T02:13:36.988Z,34.86
2022-09-20T02:14:07.120Z,34.86
2022-09-20T02:14:37.019Z,34.88
2022-09-20T02:15:07.067Z,34.88
2022-09-20T02:15:37.098Z,34.85
2022-09-20T02:16:07.188Z,34.85
2022-09-20T02:16:37.293Z,34.85
2022-09-20T02:17:07.230Z,34.88
2022-09-20T02:17:37.240Z,34.78
2022-09-20T02:18:07.276Z,34.84
2022-09-20T02:18:37.307Z,34.82
2022-09-20T02:19:07.338Z,34.91
2022-09-20T02:19:37.376Z,34.85
2022-09-20T02:20:07.413Z,34.89
2022-09-20T02:20:37.451Z,34.86
2022-09-20T02:21:07.482Z,34.88
2022-09-20T02:21:37.516Z,34.89
2022-09-20T02:22:07.550Z,34.92
2022-09-20T02:22:37.586Z,34.85
2022-09-20T02:23:07.685Z,34.88
2022-09-20T02:23:37.695Z,34.88
2022-09-20T02:24:07.735Z,34.88
2022-09-20T02:24:37.769Z,34.86
2022-09-20T02:25:07.811Z,34.89
2022-09-20T02:25:37.853Z,34.91
2022-09-20T02:26:07.875Z,34.89
2022-09-20T02:26:37.909Z,34.85
2022-09-20T02:27:07.948Z,34.88
2022-09-20T02:27:37.971Z,34.89
2022-09-20T02:28:08.011Z,34.89
2022-09-20T02:28:38.047Z,34.85
2022-09-20T02:29:08.158Z,34.91
2022-09-20T02:29:38.203Z,34.86
2022-09-20T02:30:08.240Z,34.88
2022-09-20T02:30:38.273Z,34.85
2022-09-20T02:31:08.308Z,34.88
2022-09-20T02:31:38.384Z,34.88
2022-09-20T02:32:08.475Z,34.90
2022-09-20T02:32:38.527Z,34.91
2022-09-20T02:33:08.517Z,34.86
2022-09-20T02:33:38.518Z,34.90
2022-09-20T02:34:08.516Z,34.85
2022-09-20T02:34:38.645Z,34.90
2022-09-20T02:35:08.636Z,34.85
2022-09-20T02:35:38.641Z,34.91
2022-09-20T02:36:08.759Z,34.89
2022-09-20T02:36:38.877Z,34.89
2022-09-20T02:37:08.866Z,34.93
2022-09-20T02:37:38.866Z,34.92
2022-09-20T02:38:08.860Z,34.88
2022-09-20T02:38:38.980Z,34.91
2022-09-20T02:39:08.985Z,34.89
2022-09-20T02:39:39.110Z,34.85
2022-09-20T02:40:09.248Z,34.85
2022-09-20T02:40:39.206Z,34.89
2022-09-20T02:41:09.174Z,34.89
2022-09-20T02:41:39.177Z,34.88
2022-09-20T02:42:09.295Z,34.89
2022-09-20T02:42:39.411Z,34.88
2022-09-20T02:43:09.436Z,34.87
2022-09-20T02:43:39.478Z,34.90
2022-09-20T02:44:09.506Z,34.92
2022-09-20T02:44:39.551Z,34.92
2022-09-20T02:45:09.583Z,34.88
2022-09-20T02:45:39.677Z,34.88
2022-09-20T02:46:09.793Z,34.86
2022-09-20T02:46:39.726Z,34.87
2022-09-20T02:47:09.754Z,34.93
2022-09-20T02:47:39.841Z,34.92
2022-09-20T02:48:09.865Z,34.92
2022-09-20T02:48:39.871Z,34.87
2022-09-20T02:49:09.907Z,34.94
2022-09-20T02:49:39.946Z,34.82
2022-09-20T02:50:09.976Z,34.86
2022-09-20T02:50:40.016Z,34.81
2022-09-20T02:51:10.047Z,34.85
2022-09-20T02:51:40.075Z,34.85
2022-09-20T02:52:10.114Z,34.86
2022-09-20T02:52:40.145Z,34.82
2022-09-20T02:53:10.177Z,34.85
2022-09-20T02:53:40.211Z,34.86
2022-09-20T02:54:10.247Z,34.85
2022-09-20T02:54:40.286Z,34.91
2022-09-20T02:55:10.319Z,34.85
2022-09-20T02:55:40.353Z,34.88
2022-09-20T02:56:10.385Z,34.87
2022-09-20T02:56:40.418Z,34.82
2022-09-20T02:57:10.452Z,34.86
2022-09-20T02:57:40.482Z,34.85
2022-09-20T02:58:10.515Z,34.78
2022-09-20T02:58:40.550Z,34.77
2022-09-20T02:59:10.576Z,34.87
2022-09-20T02:59:40.612Z,34.83
2022-09-20T03:00:10.647Z,34.80
2022-09-20T03:00:40.684Z,34.81
2022-09-20T03:01:10.765Z,34.81
2022-09-20T03:01:40.841Z,34.77
2022-09-20T03:02:10.878Z,34.73
2022-09-20T03:02:40.928Z,34.76
2022-09-20T03:03:10.839Z,34.74
2022-09-20T03:03:40.908Z,34.72
2022-09-20T03:04:10.918Z,34.74
2022-09-20T03:04:40.977Z,34.74
2022-09-20T03:05:11.009Z,34.72
2022-09-20T03:05:41.040Z,34.71
2022-09-20T03:06:11.070Z,34.74
2022-09-20T03:06:41.103Z,34.72
2022-09-20T03:07:11.138Z,34.73
2022-09-20T03:07:41.168Z,34.71
2022-09-20T03:08:11.200Z,34.70
2022-09-20T03:08:41.239Z,34.70
2022-09-20T03:09:11.265Z,34.72
2022-09-20T03:09:41.303Z,34.70
2022-09-20T03:10:11.336Z,34.66
2022-09-20T03:10:41.369Z,34.68
2022-09-20T03:11:11.400Z,34.64
2022-09-20T03:11:41.437Z,34.65
2022-09-20T03:12:11.468Z,34.66
2022-09-20T03:12:41.500Z,34.63
2022-09-20T03:13:11.535Z,34.59
2022-09-20T03:13:41.565Z,34.59
2022-09-20T03:14:11.602Z,34.62
2022-09-20T03:14:41.634Z,34.63
2022-09-20T03:15:11.666Z,34.59
2022-09-20T03:15:41.703Z,34.55
2022-09-20T03:16:11.792Z,34.60
2022-09-20T03:16:41.949Z,34.58
2022-09-20T03:17:11.851Z,34.61
2022-09-20T03:17:41.884Z,34.59
2022-09-20T03:18:11.920Z,34.62
2022-09-20T03:18:41.958Z,34.53
2022-09-20T03:19:12.017Z,34.56
2022-09-20T03:19:42.260Z,34.56
2022-09-20T03:20:12.037Z,34.59
2022-09-20T03:20:42.069Z,34.56
2022-09-20T03:21:12.097Z,34.59
2022-09-20T03:21:42.128Z,34.56
2022-09-20T03:22:12.161Z,34.59
2022-09-20T03:22:42.190Z,34.56
2022-09-20T03:23:12.222Z,34.55
2022-09-20T03:23:42.255Z,34.58
2022-09-20T03:24:12.282Z,34.59
2022-09-20T03:24:42.325Z,34.55
2022-09-20T03:25:12.359Z,34.55
2022-09-20T03:25:42.386Z,34.55
2022-09-20T03:26:12.420Z,34.56
2022-09-20T03:26:42.443Z,34.59
2022-09-20T03:27:12.498Z,34.59
2022-09-20T03:27:42.530Z,34.55
2022-09-20T03:28:12.557Z,34.56
2022-09-20T03:28:42.598Z,34.58
2022-09-20T03:29:12.620Z,34.59
2022-09-20T03:29:42.664Z,34.59
2022-09-20T03:30:12.689Z,34.55
2022-09-20T03:30:42.731Z,34.59
2022-09-20T03:31:12.770Z,34.59
2022-09-20T03:31:42.879Z,34.60
2022-09-20T03:32:12.867Z,34.58
2022-09-20T03:32:42.907Z,34.55
2022-09-20T03:33:12.902Z,34.57
2022-09-20T03:33:42.909Z,34.56
2022-09-20T03:34:13.023Z,34.59
2022-09-20T03:34:43.182Z,34.59
2022-09-20T03:35:13.153Z,34.54
2022-09-20T03:35:43.157Z,34.59
2022-09-20T03:36:13.266Z,34.62
2022-09-20T03:36:43.266Z,34.59
2022-09-20T03:37:13.378Z,34.56
2022-09-20T03:37:43.494Z,34.58
2022-09-20T03:38:13.615Z,34.59
2022-09-20T03:38:43.737Z,34.62
2022-09-20T03:39:13.729Z,34.59
2022-09-20T03:39:43.736Z,34.55
2022-09-20T03:40:13.789Z,34.59
2022-09-20T03:40:46.578Z,34.59
2022-09-20T03:41:13.893Z,34.59
2022-09-20T03:41:44.016Z,34.55
2022-09-20T03:42:14.131Z,34.57
2022-09-20T03:42:44.131Z,34.54
2022-09-20T03:43:14.164Z,34.59
2022-09-20T03:43:44.186Z,34.52
2022-09-20T03:44:14.220Z,34.55
2022-09-20T03:44:44.257Z,34.50
2022-09-20T03:45:14.288Z,34.54
2022-09-20T03:45:44.356Z,34.47
2022-09-20T03:46:14.481Z,34.47
2022-09-20T03:46:44.496Z,34.47
2022-09-20T03:47:14.529Z,34.47
2022-09-20T03:47:44.559Z,34.50
2022-09-20T03:48:14.589Z,34.46
2022-09-20T03:48:44.622Z,34.49
2022-09-20T03:49:14.659Z,34.54
2022-09-20T03:49:44.691Z,34.52
2022-09-20T03:50:14.748Z,34.52
2022-09-20T03:50:44.757Z,34.50
2022-09-20T03:51:14.785Z,34.48
2022-09-20T03:51:44.818Z,34.49
2022-09-20T03:52:14.852Z,34.48
2022-09-20T03:52:44.881Z,34.44
2022-09-20T03:53:14.915Z,34.39
2022-09-20T03:53:44.945Z,34.35
2022-09-20T03:54:14.978Z,34.40
2022-09-20T03:54:45.016Z,34.36
2022-09-20T03:55:15.050Z,34.36
2022-09-20T03:55:45.080Z,34.38
2022-09-20T03:56:15.112Z,34.35
2022-09-20T03:56:45.144Z,34.38
2022-09-20T03:57:15.175Z,34.27
2022-09-20T03:57:45.213Z,34.26
2022-09-20T03:58:15.251Z,34.27
2022-09-20T03:58:45.304Z,34.27
2022-09-20T03:59:15.371Z,34.26
2022-09-20T03:59:45.422Z,34.36
2022-09-20T04:00:15.450Z,34.22
2022-09-20T04:00:45.620Z,34.31
2022-09-20T04:01:15.580Z,34.28
2022-09-20T04:01:45.589Z,34.35
2022-09-20T04:02:15.721Z,34.36
2022-09-20T04:02:45.839Z,34.30
2022-09-20T04:03:15.761Z,34.33
2022-09-20T04:03:45.799Z,34.57
2022-09-20T04:04:15.840Z,34.48
2022-09-20T04:04:45.883Z,34.50
2022-09-20T04:05:15.916Z,35.52
2022-09-20T04:05:45.976Z,35.58
2022-09-20T04:06:15.989Z,35.53
2022-09-20T04:06:46.027Z,35.40
2022-09-20T04:07:16.054Z,35.68
2022-09-20T04:07:46.086Z,35.58
2022-09-20T04:08:16.117Z,35.52
2022-09-20T04:08:46.144Z,35.89
2022-09-20T04:09:16.179Z,36.48
2022-09-20T04:09:46.215Z,36.81
2022-09-20T04:10:16.258Z,36.89
2022-09-20T04:10:46.282Z,37.03
2022-09-20T04:11:16.312Z,37.30
2022-09-20T04:11:46.346Z,37.30
2022-09-20T04:12:16.380Z,37.56
2022-09-20T04:12:46.425Z,37.76
2022-09-20T04:13:16.467Z,37.70
2022-09-20T04:13:46.496Z,38.09
2022-09-20T04:14:16.541Z,38.20
2022-09-20T04:14:46.575Z,38.13
2022-09-20T04:15:16.621Z,38.11
2022-09-20T04:15:46.646Z,37.76
2022-09-20T04:16:16.762Z,37.64
2022-09-20T04:16:46.937Z,37.56
2022-09-20T04:17:16.854Z,37.56
2022-09-20T04:17:46.901Z,37.55
2022-09-20T04:18:16.921Z,37.50
2022-09-20T04:18:46.953Z,37.46
2022-09-20T04:19:16.995Z,37.46
2022-09-20T04:19:47.037Z,37.40
2022-09-20T04:20:17.068Z,37.26
2022-09-20T04:20:47.093Z,37.23
2022-09-20T04:21:17.156Z,37.21
2022-09-20T04:21:47.170Z,37.13
2022-09-20T04:22:17.199Z,37.10
2022-09-20T04:22:47.233Z,37.02
2022-09-20T04:23:17.269Z,36.88
2022-09-20T04:23:47.296Z,36.88
2022-09-20T04:24:17.328Z,36.82
2022-09-20T04:24:47.382Z,36.78
2022-09-20T04:25:17.416Z,36.69
2022-09-20T04:25:47.441Z,36.63
2022-09-20T04:26:17.480Z,36.55
2022-09-20T04:26:47.508Z,36.45
2022-09-20T04:27:17.536Z,36.43
2022-09-20T04:27:47.576Z,36.32
2022-09-20T04:28:17.601Z,36.36
2022-09-20T04:28:47.630Z,36.18
2022-09-20T04:29:17.663Z,36.11
2022-09-20T04:29:47.697Z,36.14
2022-09-20T04:30:17.736Z,36.09
2022-09-20T04:30:47.763Z,35.98
2022-09-20T04:31:20.789Z,35.98
2022-09-20T04:31:52.023Z,35.87
2022-09-20T04:32:17.946Z,35.80
2022-09-20T04:32:47.958Z,35.77
2022-09-20T04:33:17.956Z,35.70
2022-09-20T04:33:47.948Z,35.76
2022-09-20T04:34:18.068Z,35.81
2022-09-20T04:34:48.072Z,35.62
2022-09-20T04:35:18.069Z,35.64
2022-09-20T04:35:48.181Z,35.70
2022-09-20T04:36:18.299Z,35.60
2022-09-20T04:36:48.438Z,35.62
2022-09-20T04:37:18.410Z,35.57
2022-09-20T04:37:48.416Z,35.49
2022-09-20T04:38:18.533Z,35.61
2022-09-20T04:38:48.528Z,35.59
2022-09-20T04:39:18.522Z,35.57
2022-09-20T04:39:48.648Z,35.58
2022-09-20T04:40:18.810Z,35.57
2022-09-20T04:40:48.816Z,35.49
2022-09-20T04:41:18.937Z,35.50
2022-09-20T04:41:48.928Z,35.54
2022-09-20T04:42:19.048Z,35.46
2022-09-20T04:42:49.046Z,35.43
2022-09-20T04:43:19.076Z,35.46
2022-09-20T04:43:49.112Z,35.46
2022-09-20T04:44:19.147Z,35.46
2022-09-20T04:44:49.184Z,35.42
2022-09-20T04:45:19.215Z,35.43
2022-09-20T04:45:49.278Z,35.40
2022-09-20T04:46:19.374Z,35.38
2022-09-20T04:46:52.848Z,35.32
2022-09-20T04:47:19.465Z,35.35
2022-09-20T04:47:49.499Z,35.39
2022-09-20T04:48:19.525Z,35.38
2022-09-20T04:48:49.561Z,35.25
2022-09-20T04:49:19.594Z,35.25
2022-09-20T04:49:49.650Z,35.27
2022-09-20T04:50:19.654Z,35.32
2022-09-20T04:50:49.701Z,35.38
2022-09-20T04:51:19.724Z,35.39
2022-09-20T04:51:49.767Z,35.42
2022-09-20T04:52:19.818Z,35.41
2022-09-20T04:52:49.846Z,35.48
2022-09-20T04:53:19.865Z,35.42
2022-09-20T04:53:49.945Z,35.41
2022-09-20T04:54:19.940Z,35.44
2022-09-20T04:54:49.981Z,35.42
2022-09-20T04:55:20.009Z,35.43
2022-09-20T04:55:50.061Z,35.41
2022-09-20T04:56:20.069Z,35.41
2022-09-20T04:56:50.113Z,35.44
2022-09-20T04:57:20.139Z,35.35
2022-09-20T04:57:50.176Z,35.29
2022-09-20T04:58:20.207Z,35.33
2022-09-20T04:58:50.236Z,35.41
2022-09-20T04:59:20.269Z,35.36
2022-09-20T04:59:50.309Z,35.27
2022-09-20T05:00:20.348Z,35.31
2022-09-20T05:00:50.472Z,35.19
2022-09-20T05:01:20.455Z,35.08
2022-09-20T05:01:50.520Z,35.23
2022-09-20T05:02:20.625Z,35.14
2022-09-20T05:02:50.642Z,35.08
2022-09-20T05:03:20.668Z,35.08
2022-09-20T05:03:50.700Z,35.08
2022-09-20T05:04:20.730Z,35.08
2022-09-20T05:04:50.777Z,35.14
2022-09-20T05:05:20.797Z,35.05
2022-09-20T05:05:50.826Z,35.11
2022-09-20T05:06:20.855Z,35.02
2022-09-20T05:06:50.892Z,35.01
2022-09-20T05:07:20.926Z,35.02
2022-09-20T05:07:50.985Z,35.06
2022-09-20T05:08:20.992Z,34.98
2022-09-20T05:08:52.479Z,35.11
2022-09-20T05:09:21.031Z,35.04
2022-09-20T05:09:51.073Z,35.01
2022-09-20T05:10:21.103Z,35.01
2022-09-20T05:10:51.135Z,34.95
2022-09-20T05:11:21.165Z,34.81
2022-09-20T05:11:51.195Z,34.66
2022-09-20T05:12:21.226Z,34.66
2022-09-20T05:12:51.258Z,34.62
2022-09-20T05:13:21.285Z,34.57
2022-09-20T05:13:51.319Z,34.53
2022-09-20T05:14:21.406Z,34.52
2022-09-20T05:14:52.345Z,34.54
2022-09-20T05:15:21.522Z,34.50
2022-09-20T05:15:51.555Z,34.50
2022-09-20T05:16:21.618Z,34.52
2022-09-20T05:16:51.753Z,34.51
2022-09-20T05:17:21.754Z,34.49
2022-09-20T05:17:51.780Z,34.45
2022-09-20T05:18:21.814Z,34.47
2022-09-20T05:18:51.840Z,34.52
2022-09-20T05:19:21.870Z,34.48
2022-09-20T05:19:51.911Z,34.56
2022-09-20T05:20:21.941Z,34.56
2022-09-20T05:20:51.968Z,34.54
2022-09-20T05:21:22.007Z,34.57
2022-09-20T05:21:52.044Z,34.54
2022-09-20T05:22:22.068Z,34.60
2022-09-20T05:22:52.100Z,34.53
2022-09-20T05:23:22.152Z,34.53
2022-09-20T05:23:52.162Z,34.61
2022-09-20T05:24:22.197Z,34.64
2022-09-20T05:24:52.233Z,34.66
2022-09-20T05:25:22.268Z,34.58
2022-09-20T05:25:52.304Z,34.58
2022-09-20T05:26:22.333Z,34.62
2022-09-20T05:26:52.368Z,34.63
2022-09-20T05:27:22.408Z,34.54
2022-09-20T05:27:52.439Z,34.55
2022-09-20T05:28:22.473Z,34.62
2022-09-20T05:28:52.505Z,34.65
2022-09-20T05:29:22.533Z,34.54
2022-09-20T05:29:52.569Z,34.59
2022-09-20T05:30:22.608Z,34.52
2022-09-20T05:30:52.643Z,34.52
2022-09-20T05:31:22.729Z,34.57
2022-09-20T05:31:52.817Z,34.54
2022-09-20T05:32:22.844Z,34.54
2022-09-20T05:32:52.870Z,34.61
2022-09-20T05:33:22.999Z,34.57
2022-09-20T05:33:53.037Z,34.61
2022-09-20T05:34:23.011Z,34.57
2022-09-20T05:34:53.139Z,34.61
2022-09-20T05:35:23.129Z,34.58
2022-09-20T05:35:53.126Z,34.55
2022-09-20T05:36:23.241Z,34.59
2022-09-20T05:36:53.374Z,34.65
2022-09-20T05:37:23.372Z,34.54
2022-09-20T05:37:53.487Z,34.62
2022-09-20T05:38:23.565Z,34.58
2022-09-20T05:38:53.616Z,34.59
2022-09-20T05:39:23.598Z,34.59
2022-09-20T05:39:53.598Z,34.59
2022-09-20T05:40:23.631Z,34.58
2022-09-20T05:40:53.602Z,34.62
2022-09-20T05:41:23.596Z,34.58
2022-09-20T05:41:53.708Z,34.57
2022-09-20T05:42:23.742Z,34.59
2022-09-20T05:42:53.756Z,34.57
2022-09-20T05:43:23.797Z,34.54
2022-09-20T05:43:53.844Z,34.56
2022-09-20T05:44:23.857Z,34.46
2022-09-20T05:44:53.919Z,34.50
2022-09-20T05:45:23.943Z,34.49
2022-09-20T05:45:54.020Z,34.49
2022-09-20T05:46:24.082Z,34.53
2022-09-20T05:46:54.116Z,34.48
2022-09-20T05:47:24.147Z,34.50
2022-09-20T05:47:54.180Z,34.47
2022-09-20T05:48:24.211Z,34.53
2022-09-20T05:48:54.238Z,34.47
2022-09-20T05:49:24.273Z,34.56
2022-09-20T05:49:54.315Z,34.49
2022-09-20T05:50:24.350Z,34.45
2022-09-20T05:50:55.777Z,34.38
2022-09-20T05:51:24.468Z,34.42
2022-09-20T05:51:54.495Z,34.47
2022-09-20T05:52:24.531Z,34.47
2022-09-20T05:52:54.569Z,34.43
2022-09-20T05:53:24.603Z,34.38
2022-09-20T05:53:54.725Z,34.48
2022-09-20T05:54:24.835Z,34.38
2022-09-20T05:54:54.850Z,34.40
2022-09-20T05:55:24.885Z,34.44
2022-09-20T05:55:54.911Z,34.38
2022-09-20T05:56:24.941Z,34.43
2022-09-20T05:56:54.973Z,34.37
2022-09-20T05:57:24.997Z,34.40
2022-09-20T05:57:55.047Z,34.43
2022-09-20T05:58:25.059Z,34.36
2022-09-20T05:58:55.087Z,34.38
2022-09-20T05:59:25.130Z,34.37
2022-09-20T05:59:55.165Z,34.52
2022-09-20T06:00:25.200Z,34.44
2022-09-20T06:00:55.262Z,34.51
2022-09-20T06:01:25.311Z,34.44
2022-09-20T06:01:55.355Z,34.52
2022-09-20T06:02:25.438Z,34.49
2022-09-20T06:02:55.449Z,34.55
2022-09-20T06:03:25.476Z,34.44
2022-09-20T06:03:55.511Z,34.49
2022-09-20T06:04:25.541Z,34.52
2022-09-20T06:04:55.567Z,34.51
2022-09-20T06:05:25.602Z,34.51
2022-09-20T06:05:55.631Z,34.43
2022-09-20T06:06:28.054Z,34.47
2022-09-20T06:06:55.716Z,34.52
2022-09-20T06:07:25.757Z,34.46
2022-09-20T06:07:55.794Z,34.49
2022-09-20T06:08:25.828Z,34.52
2022-09-20T06:08:55.866Z,34.43
2022-09-20T06:09:25.902Z,34.41
2022-09-20T06:09:55.965Z,34.35
2022-09-20T06:10:25.974Z,34.35
2022-09-20T06:10:56.018Z,34.40
2022-09-20T06:11:26.052Z,34.41
2022-09-20T06:11:56.082Z,34.31
2022-09-20T06:12:26.122Z,34.38
2022-09-20T06:12:56.153Z,34.40
2022-09-20T06:13:26.176Z,34.34
2022-09-20T06:13:56.206Z,34.41
2022-09-20T06:14:26.233Z,34.36
2022-09-20T06:14:56.272Z,34.34
2022-09-20T06:15:26.300Z,34.33
2022-09-20T06:15:56.328Z,34.34
2022-09-20T06:16:26.401Z,34.44
2022-09-20T06:16:56.430Z,34.37
2022-09-20T06:17:26.455Z,34.23
2022-09-20T06:17:56.484Z,34.35
2022-09-20T06:18:26.516Z,34.36
2022-09-20T06:18:56.544Z,34.30
2022-09-20T06:19:26.586Z,34.25
2022-09-20T06:19:56.613Z,34.23
2022-09-20T06:20:26.727Z,34.27
2022-09-20T06:20:56.762Z,34.33
2022-09-20T06:21:26.797Z,34.29
2022-09-20T06:21:59.804Z,34.25
2022-09-20T06:22:26.874Z,34.16
2022-09-20T06:22:56.900Z,34.23
2022-09-20T06:23:26.953Z,34.23
2022-09-20T06:23:56.986Z,34.21
2022-09-20T06:24:27.020Z,34.23
2022-09-20T06:24:57.056Z,34.25
2022-09-20T06:25:27.110Z,34.23
2022-09-20T06:25:57.114Z,34.27
2022-09-20T06:26:27.145Z,34.27
2022-09-20T06:26:57.181Z,34.25